Lubbock, TX (79424)

3:33 PM CDT on March 27, 2017 (GMT -0500)
Frankfort and 79th area | | Change Station
Active Advisory: Fire Weather Watch

Elev 3294 ft 33.52 °N, 101.94 °W | Updated 16 seconds ago

Clear
Clear
71.8 °F
Feels Like 76 °F
N
1.3
Wind Variable Wind from SSW
Gusts 2.5 mph

Today
High -- | Low -- °F
--% Chance of Precip.
Yesterday
High -- | Low -- °F
Precip. -- in
Pressure 29.85 in
Visibility 10.0 miles
Clouds Clear
Heat Index 76 °F
Dew Point 34 °F
Humidity 25%
Rainfall 0.00 in
Snow Depth Not available.
7:41 AM 8:04 PM
Waning Crescent, 0% visible
METAR KLBB 271953Z 19009G14KT 10SM CLR 21/03 A2993 RMK AO2 SLP106 T02060028
Pressure 29.85 in
Visibility 10.0 miles
Clouds Clear
Heat Index 76 °F
Dew Point 34 °F
Humidity 25%
Rainfall 0.00 in
Snow Depth Not available.
7:41 AM 8:04 PM
Waning Crescent, 0% visible
METAR KLBB 271953Z 19009G14KT 10SM CLR 21/03 A2993 RMK AO2 SLP106 T02060028

Get Your Daily Forecast Email!

Thanks for signing up!

Be on the lookout for a verification email in your inbox.

You'll start receiving severe weather alerts in your inbox..

×

10-Day Weather Forecast

Almanac

Astronomy

Mar. 27, 2017 Rise Set
Actual Time
Civil Twilight
Nautical Twilight
Astronomical Twilight
Moon
Length of Visible Light
Length of Day
Tomorrow will be .
, % of the Moon is Illuminated

Today's Extremes

State Highs State Lows

Community

WunderPhotos

Upload Photos

1,962,540 photos uploaded!

WunderBlog® & News

Nearby

Air Quality

  Air Quality AQ Index Pollutant
Not available.

Snow Depth

Station Depth Elevation

Earthquake Activity

City Distance Mag. Time & Date
Minimum magnitude displayed is 2.5.

Earthquake Activity

City Distance Mag. Time & Date
Minimum magnitude displayed is 2.5.

Coastal Water Temperatures

Place Temperature

Stations

Nearby Weather Stations

Station Location Temp. Windchill Dew Point Humidity Wind Precip. Elev Updated Type
                   

Watches & Warnings

Fire Weather Watch
Issued: 3:17 PM CDT Mar. 27, 2017 – National Weather Service

... Fire Weather Watch remains in effect from Tuesday afternoon
through Tuesday evening for the western and central South Plains
for 20 foot winds of 20 mph or more... relative humidities of
15 percent or less and a high fire danger...

* wind... southwesterly 20 to 30 mph.

* Humidity... near 10 percent.

* Fuels... extremely dry.

* Impacts... any fires that develop can spread rapidly. Outdoor
burning is discouraged.

Precautionary/preparedness actions...

A Fire Weather Watch means that critical fire weather conditions
are forecast to occur. Monitor later forecasts and possible red
flag warnings.